sensor_id;sensor_type;location;lat;lon;timestamp;P1;durP1;ratioP1;P2;durP2;ratioP2
2305;SDS011;1161;51.922;8.896;2023-07-13T00:01:37;4.17;;;3.80;;
2305;SDS011;1161;51.922;8.896;2023-07-13T00:04:13;5.87;;;3.80;;
2305;SDS011;1161;51.922;8.896;2023-07-13T00:06:40;5.10;;;3.90;;
2305;SDS011;1161;51.922;8.896;2023-07-13T00:09:10;9.33;;;3.30;;
2305;SDS011;1161;51.922;8.896;2023-07-13T00:11:44;2.63;;;2.53;;
2305;SDS011;1161;51.922;8.896;2023-07-13T00:14:19;7.87;;;3.60;;
2305;SDS011;1161;51.922;8.896;2023-07-13T00:16:56;7.33;;;5.53;;
2305;SDS011;1161;51.922;8.896;2023-07-13T00:19:33;12.77;;;3.80;;
2305;SDS011;1161;51.922;8.896;2023-07-13T00:22:09;4.33;;;3.93;;
2305;SDS011;1161;51.922;8.896;2023-07-13T00:24:46;8.70;;;3.97;;
2305;SDS011;1161;51.922;8.896;2023-07-13T00:27:15;8.70;;;4.30;;
2305;SDS011;1161;51.922;8.896;2023-07-13T00:29:43;4.13;;;3.70;;
2305;SDS011;1161;51.922;8.896;2023-07-13T00:32:13;5.37;;;3.73;;
2305;SDS011;1161;51.922;8.896;2023-07-13T00:34:55;4.10;;;3.50;;
2305;SDS011;1161;51.922;8.896;2023-07-13T00:37:31;5.00;;;4.20;;
2305;SDS011;1161;51.922;8.896;2023-07-13T00:40:10;8.50;;;4.27;;
2305;SDS011;1161;51.922;8.896;2023-07-13T00:42:49;3.97;;;3.67;;
2305;SDS011;1161;51.922;8.896;2023-07-13T00:48:36;4.60;;;3.83;;
2305;SDS011;1161;51.922;8.896;2023-07-13T00:51:12;5.63;;;4.70;;
2305;SDS011;1161;51.922;8.896;2023-07-13T00:53:49;8.57;;;4.33;;
2305;SDS011;1161;51.922;8.896;2023-07-13T00:56:26;4.00;;;3.70;;
2305;SDS011;1161;51.922;8.896;2023-07-13T00:59:05;10.50;;;4.70;;
2305;SDS011;1161;51.922;8.896;2023-07-13T01:01:39;7.00;;;3.60;;
2305;SDS011;1161;51.922;8.896;2023-07-13T01:04:06;7.00;;;4.43;;
2305;SDS011;1161;51.922;8.896;2023-07-13T01:06:38;4.20;;;3.90;;
2305;SDS011;1161;51.922;8.896;2023-07-13T01:09:13;6.03;;;4.90;;
2305;SDS011;1161;51.922;8.896;2023-07-13T01:11:50;5.93;;;4.43;;
2305;SDS011;1161;51.922;8.896;2023-07-13T01:14:31;6.90;;;4.10;;
2305;SDS011;1161;51.922;8.896;2023-07-13T01:17:08;4.50;;;4.10;;
2305;SDS011;1161;51.922;8.896;2023-07-13T01:19:45;8.07;;;4.60;;
2305;SDS011;1161;51.922;8.896;2023-07-13T01:22:31;4.17;;;3.87;;
2305;SDS011;1161;51.922;8.896;2023-07-13T01:25:06;8.57;;;4.30;;
2305;SDS011;1161;51.922;8.896;2023-07-13T01:27:45;9.80;;;4.40;;
2305;SDS011;1161;51.922;8.896;2023-07-13T01:30:20;6.10;;;5.57;;
2305;SDS011;1161;51.922;8.896;2023-07-13T01:32:46;11.23;;;5.23;;
2305;SDS011;1161;51.922;8.896;2023-07-13T01:35:13;8.20;;;4.90;;
2305;SDS011;1161;51.922;8.896;2023-07-13T01:37:43;8.20;;;4.50;;
2305;SDS011;1161;51.922;8.896;2023-07-13T01:40:10;13.13;;;4.13;;
2305;SDS011;1161;51.922;8.896;2023-07-13T01:42:38;7.63;;;3.90;;
2305;SDS011;1161;51.922;8.896;2023-07-13T01:45:06;5.40;;;4.70;;
2305;SDS011;1161;51.922;8.896;2023-07-13T01:47:33;9.03;;;5.07;;
2305;SDS011;1161;51.922;8.896;2023-07-13T01:50:00;7.97;;;4.30;;
2305;SDS011;1161;51.922;8.896;2023-07-13T01:52:26;8.43;;;4.60;;
2305;SDS011;1161;51.922;8.896;2023-07-13T01:54:54;5.90;;;4.60;;
2305;SDS011;1161;51.922;8.896;2023-07-13T01:57:21;11.83;;;4.53;;
2305;SDS011;1161;51.922;8.896;2023-07-13T01:59:48;6.20;;;5.37;;
2305;SDS011;1161;51.922;8.896;2023-07-13T02:02:15;5.60;;;4.43;;
2305;SDS011;1161;51.922;8.896;2023-07-13T02:04:42;11.10;;;4.20;;
2305;SDS011;1161;51.922;8.896;2023-07-13T02:07:09;5.07;;;4.63;;
2305;SDS011;1161;51.922;8.896;2023-07-13T02:09:36;8.10;;;4.87;;
2305;SDS011;1161;51.922;8.896;2023-07-13T02:12:04;5.80;;;4.40;;
2305;SDS011;1161;51.922;8.896;2023-07-13T02:14:32;7.50;;;4.53;;
2305;SDS011;1161;51.922;8.896;2023-07-13T02:16:58;9.93;;;4.30;;
2305;SDS011;1161;51.922;8.896;2023-07-13T02:19:25;10.27;;;5.40;;
2305;SDS011;1161;51.922;8.896;2023-07-13T02:21:52;5.73;;;5.17;;
2305;SDS011;1161;51.922;8.896;2023-07-13T02:24:18;16.73;;;5.63;;
2305;SDS011;1161;51.922;8.896;2023-07-13T02:26:46;7.37;;;4.30;;
2305;SDS011;1161;51.922;8.896;2023-07-13T02:29:14;6.40;;;4.27;;
2305;SDS011;1161;51.922;8.896;2023-07-13T02:31:41;5.07;;;4.57;;
2305;SDS011;1161;51.922;8.896;2023-07-13T02:34:07;4.87;;;4.47;;
2305;SDS011;1161;51.922;8.896;2023-07-13T02:36:54;8.57;;;4.77;;
2305;SDS011;1161;51.922;8.896;2023-07-13T02:39:40;8.73;;;5.10;;
2305;SDS011;1161;51.922;8.896;2023-07-13T02:42:27;6.60;;;5.07;;
2305;SDS011;1161;51.922;8.896;2023-07-13T02:45:14;6.57;;;5.40;;
2305;SDS011;1161;51.922;8.896;2023-07-13T02:48:01;10.47;;;6.20;;
2305;SDS011;1161;51.922;8.896;2023-07-13T02:50:48;13.40;;;6.50;;
2305;SDS011;1161;51.922;8.896;2023-07-13T02:53:34;16.30;;;5.10;;
2305;SDS011;1161;51.922;8.896;2023-07-13T02:56:22;12.43;;;6.50;;
2305;SDS011;1161;51.922;8.896;2023-07-13T02:59:09;9.03;;;6.73;;
2305;SDS011;1161;51.922;8.896;2023-07-13T03:01:58;12.43;;;6.90;;
2305;SDS011;1161;51.922;8.896;2023-07-13T03:04:45;9.53;;;7.00;;
2305;SDS011;1161;51.922;8.896;2023-07-13T03:07:31;9.70;;;6.10;;
2305;SDS011;1161;51.922;8.896;2023-07-13T03:10:18;10.27;;;7.30;;
2305;SDS011;1161;51.922;8.896;2023-07-13T03:13:04;11.27;;;6.77;;
2305;SDS011;1161;51.922;8.896;2023-07-13T03:15:51;25.93;;;8.07;;
2305;SDS011;1161;51.922;8.896;2023-07-13T03:18:39;9.57;;;6.83;;
2305;SDS011;1161;51.922;8.896;2023-07-13T03:21:25;8.37;;;6.97;;
2305;SDS011;1161;51.922;8.896;2023-07-13T03:24:12;10.83;;;6.63;;
2305;SDS011;1161;51.922;8.896;2023-07-13T03:26:58;9.70;;;6.70;;
2305;SDS011;1161;51.922;8.896;2023-07-13T03:29:44;12.37;;;7.20;;
2305;SDS011;1161;51.922;8.896;2023-07-13T03:32:31;9.33;;;5.83;;
2305;SDS011;1161;51.922;8.896;2023-07-13T03:35:19;12.67;;;6.90;;
2305;SDS011;1161;51.922;8.896;2023-07-13T03:38:05;8.63;;;6.10;;
2305;SDS011;1161;51.922;8.896;2023-07-13T03:40:52;13.73;;;6.90;;
2305;SDS011;1161;51.922;8.896;2023-07-13T03:43:38;18.87;;;6.90;;
2305;SDS011;1161;51.922;8.896;2023-07-13T03:46:25;12.43;;;5.23;;
2305;SDS011;1161;51.922;8.896;2023-07-13T03:49:12;7.67;;;5.83;;
2305;SDS011;1161;51.922;8.896;2023-07-13T03:52:00;8.27;;;5.40;;
2305;SDS011;1161;51.922;8.896;2023-07-13T03:54:46;14.90;;;4.50;;
2305;SDS011;1161;51.922;8.896;2023-07-13T03:57:33;13.43;;;4.40;;
2305;SDS011;1161;51.922;8.896;2023-07-13T04:00:00;12.70;;;5.00;;
2305;SDS011;1161;51.922;8.896;2023-07-13T04:02:26;9.33;;;4.27;;
2305;SDS011;1161;51.922;8.896;2023-07-13T04:04:53;5.57;;;3.50;;
2305;SDS011;1161;51.922;8.896;2023-07-13T04:07:21;9.03;;;4.73;;
2305;SDS011;1161;51.922;8.896;2023-07-13T04:09:47;4.93;;;3.93;;
2305;SDS011;1161;51.922;8.896;2023-07-13T04:12:14;12.10;;;5.20;;
2305;SDS011;1161;51.922;8.896;2023-07-13T04:14:41;3.63;;;3.43;;
2305;SDS011;1161;51.922;8.896;2023-07-13T04:17:07;8.37;;;3.80;;
2305;SDS011;1161;51.922;8.896;2023-07-13T04:19:34;4.93;;;3.10;;
2305;SDS011;1161;51.922;8.896;2023-07-13T04:22:01;14.73;;;3.57;;
2305;SDS011;1161;51.922;8.896;2023-07-13T04:24:29;9.63;;;3.63;;
2305;SDS011;1161;51.922;8.896;2023-07-13T04:26:56;18.13;;;4.83;;
2305;SDS011;1161;51.922;8.896;2023-07-13T04:29:24;11.90;;;3.60;;
2305;SDS011;1161;51.922;8.896;2023-07-13T04:31:51;4.27;;;3.53;;
2305;SDS011;1161;51.922;8.896;2023-07-13T04:34:18;10.00;;;4.00;;
2305;SDS011;1161;51.922;8.896;2023-07-13T04:36:45;6.60;;;3.73;;
2305;SDS011;1161;51.922;8.896;2023-07-13T04:39:12;8.33;;;3.83;;
2305;SDS011;1161;51.922;8.896;2023-07-13T04:41:40;29.80;;;5.17;;
2305;SDS011;1161;51.922;8.896;2023-07-13T04:44:07;8.37;;;2.97;;
2305;SDS011;1161;51.922;8.896;2023-07-13T04:46:34;8.40;;;2.93;;
2305;SDS011;1161;51.922;8.896;2023-07-13T04:49:00;9.53;;;3.33;;
2305;SDS011;1161;51.922;8.896;2023-07-13T04:51:29;2.83;;;2.63;;
2305;SDS011;1161;51.922;8.896;2023-07-13T04:53:56;4.60;;;2.77;;
2305;SDS011;1161;51.922;8.896;2023-07-13T04:56:23;8.67;;;3.03;;
2305;SDS011;1161;51.922;8.896;2023-07-13T04:58:51;14.00;;;2.73;;
2305;SDS011;1161;51.922;8.896;2023-07-13T05:01:18;4.47;;;2.83;;
2305;SDS011;1161;51.922;8.896;2023-07-13T05:03:45;7.23;;;3.03;;
2305;SDS011;1161;51.922;8.896;2023-07-13T05:06:12;5.70;;;3.13;;
2305;SDS011;1161;51.922;8.896;2023-07-13T05:08:40;6.20;;;3.07;;
2305;SDS011;1161;51.922;8.896;2023-07-13T05:11:06;6.07;;;2.50;;
2305;SDS011;1161;51.922;8.896;2023-07-13T05:13:33;8.53;;;2.47;;
2305;SDS011;1161;51.922;8.896;2023-07-13T05:16:02;8.10;;;3.17;;
2305;SDS011;1161;51.922;8.896;2023-07-13T05:18:31;3.30;;;2.47;;
2305;SDS011;1161;51.922;8.896;2023-07-13T05:20:58;8.30;;;3.70;;
2305;SDS011;1161;51.922;8.896;2023-07-13T05:23:25;5.80;;;3.90;;
2305;SDS011;1161;51.922;8.896;2023-07-13T05:25:53;4.10;;;2.80;;
2305;SDS011;1161;51.922;8.896;2023-07-13T05:28:20;5.93;;;2.73;;
2305;SDS011;1161;51.922;8.896;2023-07-13T05:30:46;7.90;;;2.87;;
2305;SDS011;1161;51.922;8.896;2023-07-13T05:33:15;9.83;;;2.93;;
2305;SDS011;1161;51.922;8.896;2023-07-13T05:35:42;5.80;;;2.53;;
2305;SDS011;1161;51.922;8.896;2023-07-13T05:38:09;10.27;;;3.57;;
2305;SDS011;1161;51.922;8.896;2023-07-13T05:40:35;10.50;;;2.60;;
2305;SDS011;1161;51.922;8.896;2023-07-13T05:43:02;5.10;;;2.50;;
2305;SDS011;1161;51.922;8.896;2023-07-13T05:45:29;5.70;;;3.40;;
2305;SDS011;1161;51.922;8.896;2023-07-13T05:47:56;8.20;;;2.20;;
2305;SDS011;1161;51.922;8.896;2023-07-13T05:50:25;6.40;;;3.30;;
2305;SDS011;1161;51.922;8.896;2023-07-13T05:52:52;8.80;;;3.50;;
2305;SDS011;1161;51.922;8.896;2023-07-13T05:55:19;4.07;;;2.73;;
2305;SDS011;1161;51.922;8.896;2023-07-13T05:57:46;7.33;;;2.27;;
2305;SDS011;1161;51.922;8.896;2023-07-13T06:00:13;4.47;;;2.90;;
2305;SDS011;1161;51.922;8.896;2023-07-13T06:02:40;11.03;;;2.53;;
2305;SDS011;1161;51.922;8.896;2023-07-13T06:05:07;12.10;;;2.73;;
2305;SDS011;1161;51.922;8.896;2023-07-13T06:07:35;5.03;;;2.23;;
2305;SDS011;1161;51.922;8.896;2023-07-13T06:10:02;6.50;;;2.80;;
2305;SDS011;1161;51.922;8.896;2023-07-13T06:12:29;7.90;;;2.87;;
2305;SDS011;1161;51.922;8.896;2023-07-13T06:14:56;6.23;;;1.97;;
2305;SDS011;1161;51.922;8.896;2023-07-13T06:17:22;12.30;;;2.17;;
2305;SDS011;1161;51.922;8.896;2023-07-13T06:19:49;5.60;;;2.67;;
2305;SDS011;1161;51.922;8.896;2023-07-13T06:22:15;10.20;;;2.60;;
2305;SDS011;1161;51.922;8.896;2023-07-13T06:24:44;9.90;;;2.97;;
2305;SDS011;1161;51.922;8.896;2023-07-13T06:27:10;9.13;;;3.00;;
2305;SDS011;1161;51.922;8.896;2023-07-13T06:29:37;2.90;;;2.33;;
2305;SDS011;1161;51.922;8.896;2023-07-13T06:32:05;3.40;;;2.33;;
2305;SDS011;1161;51.922;8.896;2023-07-13T06:34:32;7.83;;;2.50;;
2305;SDS011;1161;51.922;8.896;2023-07-13T06:37:00;4.30;;;2.63;;
2305;SDS011;1161;51.922;8.896;2023-07-13T06:39:26;5.97;;;3.20;;
2305;SDS011;1161;51.922;8.896;2023-07-13T06:41:54;10.73;;;2.73;;
2305;SDS011;1161;51.922;8.896;2023-07-13T06:44:22;8.63;;;2.53;;
2305;SDS011;1161;51.922;8.896;2023-07-13T06:46:48;9.73;;;3.37;;
2305;SDS011;1161;51.922;8.896;2023-07-13T06:49:15;6.00;;;2.40;;
2305;SDS011;1161;51.922;8.896;2023-07-13T06:51:41;19.13;;;2.70;;
2305;SDS011;1161;51.922;8.896;2023-07-13T06:54:08;5.90;;;2.30;;
2305;SDS011;1161;51.922;8.896;2023-07-13T06:56:34;8.43;;;2.63;;
2305;SDS011;1161;51.922;8.896;2023-07-13T06:59:02;6.67;;;2.57;;
2305;SDS011;1161;51.922;8.896;2023-07-13T07:01:29;7.30;;;2.47;;
2305;SDS011;1161;51.922;8.896;2023-07-13T07:03:56;5.60;;;2.33;;
2305;SDS011;1161;51.922;8.896;2023-07-13T07:06:23;7.03;;;3.20;;
2305;SDS011;1161;51.922;8.896;2023-07-13T07:08:50;7.60;;;4.50;;
2305;SDS011;1161;51.922;8.896;2023-07-13T07:11:17;7.10;;;3.30;;
2305;SDS011;1161;51.922;8.896;2023-07-13T07:13:45;6.37;;;2.70;;
2305;SDS011;1161;51.922;8.896;2023-07-13T07:16:13;11.17;;;3.50;;
2305;SDS011;1161;51.922;8.896;2023-07-13T07:18:59;16.03;;;3.10;;
2305;SDS011;1161;51.922;8.896;2023-07-13T07:21:46;5.03;;;2.93;;
2305;SDS011;1161;51.922;8.896;2023-07-13T07:24:20;7.63;;;3.83;;
2305;SDS011;1161;51.922;8.896;2023-07-13T07:26:52;12.30;;;3.30;;
2305;SDS011;1161;51.922;8.896;2023-07-13T07:29:20;13.17;;;3.70;;
2305;SDS011;1161;51.922;8.896;2023-07-13T07:31:51;6.73;;;3.07;;
2305;SDS011;1161;51.922;8.896;2023-07-13T07:34:37;6.33;;;3.57;;
2305;SDS011;1161;51.922;8.896;2023-07-13T07:37:24;4.80;;;2.70;;
2305;SDS011;1161;51.922;8.896;2023-07-13T07:40:11;8.97;;;3.33;;
2305;SDS011;1161;51.922;8.896;2023-07-13T07:42:44;9.27;;;3.03;;
2305;SDS011;1161;51.922;8.896;2023-07-13T07:45:11;5.63;;;2.90;;
2305;SDS011;1161;51.922;8.896;2023-07-13T07:47:40;12.43;;;3.77;;
2305;SDS011;1161;51.922;8.896;2023-07-13T07:50:23;13.10;;;3.70;;
2305;SDS011;1161;51.922;8.896;2023-07-13T07:52:51;20.80;;;4.00;;
2305;SDS011;1161;51.922;8.896;2023-07-13T07:55:18;6.87;;;2.80;;
2305;SDS011;1161;51.922;8.896;2023-07-13T07:57:45;11.17;;;3.60;;
2305;SDS011;1161;51.922;8.896;2023-07-13T08:00:12;4.20;;;3.60;;
2305;SDS011;1161;51.922;8.896;2023-07-13T08:02:41;7.50;;;3.27;;
2305;SDS011;1161;51.922;8.896;2023-07-13T08:05:07;8.17;;;4.43;;
2305;SDS011;1161;51.922;8.896;2023-07-13T08:07:34;13.30;;;4.60;;
2305;SDS011;1161;51.922;8.896;2023-07-13T08:10:01;11.60;;;3.90;;
2305;SDS011;1161;51.922;8.896;2023-07-13T08:12:28;6.97;;;4.00;;
2305;SDS011;1161;51.922;8.896;2023-07-13T08:14:54;10.93;;;3.60;;
2305;SDS011;1161;51.922;8.896;2023-07-13T08:17:23;6.70;;;4.40;;
2305;SDS011;1161;51.922;8.896;2023-07-13T08:19:51;19.17;;;4.93;;
2305;SDS011;1161;51.922;8.896;2023-07-13T08:22:17;8.20;;;3.97;;
2305;SDS011;1161;51.922;8.896;2023-07-13T08:24:44;13.13;;;4.20;;
2305;SDS011;1161;51.922;8.896;2023-07-13T08:27:12;12.23;;;4.10;;
2305;SDS011;1161;51.922;8.896;2023-07-13T08:29:40;14.23;;;4.30;;
2305;SDS011;1161;51.922;8.896;2023-07-13T08:32:07;7.80;;;3.33;;
2305;SDS011;1161;51.922;8.896;2023-07-13T08:34:36;20.00;;;4.10;;
2305;SDS011;1161;51.922;8.896;2023-07-13T08:37:04;9.13;;;3.40;;
2305;SDS011;1161;51.922;8.896;2023-07-13T08:39:31;6.63;;;3.80;;
2305;SDS011;1161;51.922;8.896;2023-07-13T08:41:58;7.83;;;4.00;;
2305;SDS011;1161;51.922;8.896;2023-07-13T08:44:27;9.47;;;3.40;;
2305;SDS011;1161;51.922;8.896;2023-07-13T08:46:58;10.40;;;3.33;;
2305;SDS011;1161;51.922;8.896;2023-07-13T08:49:25;3.30;;;3.03;;
2305;SDS011;1161;51.922;8.896;2023-07-13T08:51:53;6.00;;;3.27;;
2305;SDS011;1161;51.922;8.896;2023-07-13T08:54:27;13.77;;;3.87;;
2305;SDS011;1161;51.922;8.896;2023-07-13T08:56:56;14.23;;;3.97;;
2305;SDS011;1161;51.922;8.896;2023-07-13T08:59:24;4.90;;;3.00;;
2305;SDS011;1161;51.922;8.896;2023-07-13T09:04:45;7.27;;;3.10;;
2305;SDS011;1161;51.922;8.896;2023-07-13T09:07:14;3.20;;;2.63;;
2305;SDS011;1161;51.922;8.896;2023-07-13T09:09:55;9.83;;;3.23;;
2305;SDS011;1161;51.922;8.896;2023-07-13T09:12:31;10.27;;;2.87;;
2305;SDS011;1161;51.922;8.896;2023-07-13T09:15:01;6.83;;;3.70;;
2305;SDS011;1161;51.922;8.896;2023-07-13T09:17:31;7.10;;;3.67;;
2305;SDS011;1161;51.922;8.896;2023-07-13T09:20:00;3.20;;;3.00;;
2305;SDS011;1161;51.922;8.896;2023-07-13T09:22:30;7.13;;;4.53;;
2305;SDS011;1161;51.922;8.896;2023-07-13T09:25:02;5.60;;;3.53;;
2305;SDS011;1161;51.922;8.896;2023-07-13T09:27:34;12.40;;;4.47;;
2305;SDS011;1161;51.922;8.896;2023-07-13T09:30:09;3.67;;;3.30;;
2305;SDS011;1161;51.922;8.896;2023-07-13T09:32:50;5.97;;;3.83;;
2305;SDS011;1161;51.922;8.896;2023-07-13T09:35:19;10.73;;;4.23;;
2305;SDS011;1161;51.922;8.896;2023-07-13T09:37:49;7.20;;;4.13;;
2305;SDS011;1161;51.922;8.896;2023-07-13T09:40:20;9.50;;;4.00;;
2305;SDS011;1161;51.922;8.896;2023-07-13T09:42:51;8.50;;;4.57;;
2305;SDS011;1161;51.922;8.896;2023-07-13T09:45:26;14.53;;;4.03;;
2305;SDS011;1161;51.922;8.896;2023-07-13T09:47:58;10.33;;;4.20;;
2305;SDS011;1161;51.922;8.896;2023-07-13T09:50:26;6.90;;;3.70;;
2305;SDS011;1161;51.922;8.896;2023-07-13T09:52:55;6.10;;;3.83;;
2305;SDS011;1161;51.922;8.896;2023-07-13T09:55:30;9.97;;;3.90;;
2305;SDS011;1161;51.922;8.896;2023-07-13T09:58:02;7.80;;;3.40;;
2305;SDS011;1161;51.922;8.896;2023-07-13T10:00:31;6.30;;;3.33;;
2305;SDS011;1161;51.922;8.896;2023-07-13T10:02:59;7.03;;;3.13;;
2305;SDS011;1161;51.922;8.896;2023-07-13T10:05:37;9.00;;;3.30;;
2305;SDS011;1161;51.922;8.896;2023-07-13T10:08:04;3.60;;;3.27;;
2305;SDS011;1161;51.922;8.896;2023-07-13T10:10:33;12.93;;;4.10;;
2305;SDS011;1161;51.922;8.896;2023-07-13T10:13:01;7.30;;;3.33;;
2305;SDS011;1161;51.922;8.896;2023-07-13T10:15:31;6.77;;;3.70;;
2305;SDS011;1161;51.922;8.896;2023-07-13T10:17:58;8.77;;;3.70;;
2305;SDS011;1161;51.922;8.896;2023-07-13T10:20:25;3.10;;;2.60;;
2305;SDS011;1161;51.922;8.896;2023-07-13T10:22:54;3.07;;;2.83;;
2305;SDS011;1161;51.922;8.896;2023-07-13T10:25:23;14.07;;;4.03;;
2305;SDS011;1161;51.922;8.896;2023-07-13T10:27:54;8.07;;;2.90;;
2305;SDS011;1161;51.922;8.896;2023-07-13T10:30:27;9.30;;;4.63;;
2305;SDS011;1161;51.922;8.896;2023-07-13T10:35:24;6.50;;;3.90;;
2305;SDS011;1161;51.922;8.896;2023-07-13T10:37:57;5.80;;;2.70;;
2305;SDS011;1161;51.922;8.896;2023-07-13T10:40:33;6.27;;;2.80;;
2305;SDS011;1161;51.922;8.896;2023-07-13T10:43:04;6.20;;;4.20;;
2305;SDS011;1161;51.922;8.896;2023-07-13T10:45:38;8.13;;;3.83;;
2305;SDS011;1161;51.922;8.896;2023-07-13T10:48:05;3.60;;;3.30;;
2305;SDS011;1161;51.922;8.896;2023-07-13T10:50:35;9.93;;;4.03;;
2305;SDS011;1161;51.922;8.896;2023-07-13T10:53:17;5.00;;;4.00;;
2305;SDS011;1161;51.922;8.896;2023-07-13T10:55:54;7.27;;;4.27;;
2305;SDS011;1161;51.922;8.896;2023-07-13T10:58:29;11.73;;;4.13;;
2305;SDS011;1161;51.922;8.896;2023-07-13T11:01:01;14.20;;;4.23;;
2305;SDS011;1161;51.922;8.896;2023-07-13T11:03:30;10.70;;;4.97;;
2305;SDS011;1161;51.922;8.896;2023-07-13T11:06:06;6.17;;;3.93;;
2305;SDS011;1161;51.922;8.896;2023-07-13T11:08:36;9.50;;;3.47;;
2305;SDS011;1161;51.922;8.896;2023-07-13T11:14:03;8.50;;;3.80;;
2305;SDS011;1161;51.922;8.896;2023-07-13T11:16:42;4.77;;;3.60;;
2305;SDS011;1161;51.922;8.896;2023-07-13T11:22:16;5.50;;;3.53;;
2305;SDS011;1161;51.922;8.896;2023-07-13T11:24:48;5.17;;;3.30;;
2305;SDS011;1161;51.922;8.896;2023-07-13T11:27:21;3.80;;;3.27;;
2305;SDS011;1161;51.922;8.896;2023-07-13T11:29:53;4.50;;;3.07;;
2305;SDS011;1161;51.922;8.896;2023-07-13T11:32:33;7.07;;;2.80;;
2305;SDS011;1161;51.922;8.896;2023-07-13T11:35:01;5.70;;;2.83;;
2305;SDS011;1161;51.922;8.896;2023-07-13T11:37:29;10.73;;;3.80;;
2305;SDS011;1161;51.922;8.896;2023-07-13T11:39:57;9.90;;;2.80;;
2305;SDS011;1161;51.922;8.896;2023-07-13T11:42:24;7.23;;;3.73;;
2305;SDS011;1161;51.922;8.896;2023-07-13T11:44:52;8.80;;;3.13;;
2305;SDS011;1161;51.922;8.896;2023-07-13T11:47:21;2.47;;;2.23;;
2305;SDS011;1161;51.922;8.896;2023-07-13T11:49:52;5.77;;;2.70;;
2305;SDS011;1161;51.922;8.896;2023-07-13T11:52:22;7.30;;;3.43;;
2305;SDS011;1161;51.922;8.896;2023-07-13T11:54:51;10.57;;;3.93;;
2305;SDS011;1161;51.922;8.896;2023-07-13T11:57:23;7.37;;;2.80;;
2305;SDS011;1161;51.922;8.896;2023-07-13T11:59:51;5.10;;;2.03;;
2305;SDS011;1161;51.922;8.896;2023-07-13T12:02:31;7.70;;;2.80;;
2305;SDS011;1161;51.922;8.896;2023-07-13T12:04:59;6.70;;;2.70;;
2305;SDS011;1161;51.922;8.896;2023-07-13T12:07:28;5.30;;;2.83;;
2305;SDS011;1161;51.922;8.896;2023-07-13T12:09:59;5.23;;;2.37;;
2305;SDS011;1161;51.922;8.896;2023-07-13T12:12:28;4.77;;;2.27;;
2305;SDS011;1161;51.922;8.896;2023-07-13T12:14:57;4.33;;;2.73;;
2305;SDS011;1161;51.922;8.896;2023-07-13T12:17:24;6.00;;;2.97;;
2305;SDS011;1161;51.922;8.896;2023-07-13T12:19:52;6.33;;;2.20;;
2305;SDS011;1161;51.922;8.896;2023-07-13T12:22:19;10.73;;;2.60;;
2305;SDS011;1161;51.922;8.896;2023-07-13T12:24:48;8.13;;;2.00;;
2305;SDS011;1161;51.922;8.896;2023-07-13T12:27:18;7.27;;;3.17;;
2305;SDS011;1161;51.922;8.896;2023-07-13T12:29:50;6.40;;;2.40;;
2305;SDS011;1161;51.922;8.896;2023-07-13T12:32:20;6.37;;;2.27;;
2305;SDS011;1161;51.922;8.896;2023-07-13T12:34:51;5.23;;;2.53;;
2305;SDS011;1161;51.922;8.896;2023-07-13T12:37:19;4.47;;;2.20;;
2305;SDS011;1161;51.922;8.896;2023-07-13T12:39:46;3.57;;;2.87;;
2305;SDS011;1161;51.922;8.896;2023-07-13T12:42:18;3.63;;;2.83;;
2305;SDS011;1161;51.922;8.896;2023-07-13T12:44:49;5.60;;;2.50;;
2305;SDS011;1161;51.922;8.896;2023-07-13T12:47:19;7.03;;;3.13;;
2305;SDS011;1161;51.922;8.896;2023-07-13T12:49:48;4.87;;;3.30;;
2305;SDS011;1161;51.922;8.896;2023-07-13T12:52:19;4.13;;;3.43;;
2305;SDS011;1161;51.922;8.896;2023-07-13T12:54:54;9.43;;;2.77;;
2305;SDS011;1161;51.922;8.896;2023-07-13T12:57:23;3.70;;;3.07;;
2305;SDS011;1161;51.922;8.896;2023-07-13T12:59:51;2.73;;;2.13;;
2305;SDS011;1161;51.922;8.896;2023-07-13T13:02:26;5.13;;;3.73;;
2305;SDS011;1161;51.922;8.896;2023-07-13T13:04:56;6.90;;;2.60;;
2305;SDS011;1161;51.922;8.896;2023-07-13T13:07:24;3.30;;;2.90;;
2305;SDS011;1161;51.922;8.896;2023-07-13T13:09:52;7.07;;;4.60;;
2305;SDS011;1161;51.922;8.896;2023-07-13T13:12:21;4.83;;;2.90;;
2305;SDS011;1161;51.922;8.896;2023-07-13T13:14:50;7.10;;;3.37;;
2305;SDS011;1161;51.922;8.896;2023-07-13T13:17:18;5.33;;;3.20;;
2305;SDS011;1161;51.922;8.896;2023-07-13T13:19:48;2.43;;;2.30;;
2305;SDS011;1161;51.922;8.896;2023-07-13T13:22:15;3.10;;;2.80;;
2305;SDS011;1161;51.922;8.896;2023-07-13T13:24:43;6.10;;;4.20;;
2305;SDS011;1161;51.922;8.896;2023-07-13T13:27:14;10.20;;;3.80;;
2305;SDS011;1161;51.922;8.896;2023-07-13T13:29:43;10.70;;;3.73;;
2305;SDS011;1161;51.922;8.896;2023-07-13T13:32:12;3.90;;;3.47;;
2305;SDS011;1161;51.922;8.896;2023-07-13T13:34:40;4.27;;;3.43;;
2305;SDS011;1161;51.922;8.896;2023-07-13T13:37:17;4.90;;;4.00;;
2305;SDS011;1161;51.922;8.896;2023-07-13T13:39:45;7.33;;;4.10;;
2305;SDS011;1161;51.922;8.896;2023-07-13T13:42:13;10.80;;;5.10;;
2305;SDS011;1161;51.922;8.896;2023-07-13T13:44:41;12.30;;;4.70;;
2305;SDS011;1161;51.922;8.896;2023-07-13T13:47:14;6.20;;;4.77;;
2305;SDS011;1161;51.922;8.896;2023-07-13T13:49:48;10.03;;;4.73;;
2305;SDS011;1161;51.922;8.896;2023-07-13T13:52:16;7.17;;;4.10;;
2305;SDS011;1161;51.922;8.896;2023-07-13T13:54:43;7.00;;;3.53;;
2305;SDS011;1161;51.922;8.896;2023-07-13T13:57:10;8.40;;;4.37;;
2305;SDS011;1161;51.922;8.896;2023-07-13T13:59:39;6.10;;;4.70;;
2305;SDS011;1161;51.922;8.896;2023-07-13T14:02:11;4.23;;;3.83;;
2305;SDS011;1161;51.922;8.896;2023-07-13T14:04:49;7.07;;;3.50;;
2305;SDS011;1161;51.922;8.896;2023-07-13T14:07:19;6.43;;;3.53;;
2305;SDS011;1161;51.922;8.896;2023-07-13T14:09:46;3.93;;;3.63;;
2305;SDS011;1161;51.922;8.896;2023-07-13T14:12:14;2.90;;;2.80;;
2305;SDS011;1161;51.922;8.896;2023-07-13T14:14:41;5.90;;;3.23;;
2305;SDS011;1161;51.922;8.896;2023-07-13T14:17:11;8.27;;;3.37;;
2305;SDS011;1161;51.922;8.896;2023-07-13T14:19:47;3.87;;;2.90;;
2305;SDS011;1161;51.922;8.896;2023-07-13T14:22:19;11.63;;;3.87;;
2305;SDS011;1161;51.922;8.896;2023-07-13T14:24:47;9.53;;;3.93;;
2305;SDS011;1161;51.922;8.896;2023-07-13T14:27:14;12.00;;;3.80;;
2305;SDS011;1161;51.922;8.896;2023-07-13T14:29:42;7.00;;;3.13;;
2305;SDS011;1161;51.922;8.896;2023-07-13T14:32:10;4.70;;;3.00;;
2305;SDS011;1161;51.922;8.896;2023-07-13T14:34:37;4.00;;;3.23;;
2305;SDS011;1161;51.922;8.896;2023-07-13T14:37:05;5.33;;;3.50;;
2305;SDS011;1161;51.922;8.896;2023-07-13T14:39:39;7.53;;;3.70;;
2305;SDS011;1161;51.922;8.896;2023-07-13T14:42:08;9.00;;;4.20;;
2305;SDS011;1161;51.922;8.896;2023-07-13T14:44:37;8.10;;;2.70;;
2305;SDS011;1161;51.922;8.896;2023-07-13T14:47:05;9.37;;;4.43;;
2305;SDS011;1161;51.922;8.896;2023-07-13T14:49:34;6.43;;;3.40;;
2305;SDS011;1161;51.922;8.896;2023-07-13T14:52:03;3.97;;;3.00;;
2305;SDS011;1161;51.922;8.896;2023-07-13T14:54:36;5.33;;;3.10;;
2305;SDS011;1161;51.922;8.896;2023-07-13T14:57:10;7.10;;;3.67;;
2305;SDS011;1161;51.922;8.896;2023-07-13T14:59:41;8.23;;;3.20;;
2305;SDS011;1161;51.922;8.896;2023-07-13T15:02:13;6.07;;;4.33;;
2305;SDS011;1161;51.922;8.896;2023-07-13T15:04:43;8.30;;;4.10;;
2305;SDS011;1161;51.922;8.896;2023-07-13T15:07:11;5.60;;;3.63;;
2305;SDS011;1161;51.922;8.896;2023-07-13T15:09:39;4.43;;;4.03;;
2305;SDS011;1161;51.922;8.896;2023-07-13T15:12:07;4.47;;;4.07;;
2305;SDS011;1161;51.922;8.896;2023-07-13T15:14:35;10.23;;;4.10;;
2305;SDS011;1161;51.922;8.896;2023-07-13T15:17:03;9.70;;;5.40;;
2305;SDS011;1161;51.922;8.896;2023-07-13T15:19:30;12.53;;;7.57;;
2305;SDS011;1161;51.922;8.896;2023-07-13T15:21:58;5.40;;;4.90;;
2305;SDS011;1161;51.922;8.896;2023-07-13T15:24:25;6.47;;;5.50;;
2305;SDS011;1161;51.922;8.896;2023-07-13T15:26:57;5.77;;;5.20;;
2305;SDS011;1161;51.922;8.896;2023-07-13T15:29:24;14.80;;;5.37;;
2305;SDS011;1161;51.922;8.896;2023-07-13T15:31:52;5.73;;;5.10;;
2305;SDS011;1161;51.922;8.896;2023-07-13T15:34:21;8.43;;;5.20;;
2305;SDS011;1161;51.922;8.896;2023-07-13T15:36:53;9.97;;;5.10;;
2305;SDS011;1161;51.922;8.896;2023-07-13T15:39:21;8.60;;;5.23;;
2305;SDS011;1161;51.922;8.896;2023-07-13T15:41:50;9.63;;;6.60;;
2305;SDS011;1161;51.922;8.896;2023-07-13T15:44:21;7.33;;;5.70;;
2305;SDS011;1161;51.922;8.896;2023-07-13T15:46:58;8.50;;;5.17;;
2305;SDS011;1161;51.922;8.896;2023-07-13T15:49:28;9.67;;;5.73;;
2305;SDS011;1161;51.922;8.896;2023-07-13T15:51:55;8.00;;;5.10;;